Main page
METAR-TAF:

METAR-TAF

Airports :

Oskemen Airport

Oskemen, Kazakhstan

latitude: 50-02-10N, longitude: 082-29-39E, elevation: 286 m

Current weather observation

The report was made 32 minutes ago, at 05:30 UTC
Wind 10 kt from the West, varying between West/Southwest and Northwest
Temperature 14°C
Humidity 31%
Pressure 1017 hPa
Visibility 10 km or more
Scattered clouds at a height of 7000 ft

METAR: UASK 260530Z 27005MPS 250V310 9999 SCT070 14/M03 Q1017 NOSIG RMK QFE737/0983

Time: 12:02 (06:02 UTC)

Forecast

The report was made 1 hour and 2 minutes ago, at 05:00 UTC
Forecast valid from 26 at 06 UTC to 26 at 15 UTC
Wind 10 kt from the West/Northwest
Visibility 10 km or more
Scattered clouds at a height of 10000 ft
Temporary
from 26 at 06 UTC to 26 at 12 UTC
Wind 16 kt from the North/Northwest with gusts up to 25 kt
Few clouds at a height of 4000 ft

TAF: UASK 260500Z 2606/2615 29005MPS 9999 SCT100 TEMPO 2606/2612 33008G13MPS FEW040

Weather observations and forecasts of more than 4000 airports (METAR and TAF reports).

The available stations are represented by yellow and red dots on the map.

Hover mouse over dot to see the name of the station.

Then click to see weather observations and forecasts.

To change the map : click on the green buttons with a black cross to zoom in, on the green button with a dash to zoom out, or on the green arrows for adjacent maps.


METAR-TAF: